createdAt,value
2024-01-20T00:01:48.804Z,-0.20
2024-01-20T00:04:36.783Z,-0.20
2024-01-20T00:07:24.365Z,-0.10
2024-01-20T00:10:13.230Z,-0.10
2024-01-20T00:13:01.543Z,-0.10
2024-01-20T00:15:49.093Z,-0.10
2024-01-20T00:18:37.988Z,-0.10
2024-01-20T00:21:25.498Z,-0.10
2024-01-20T00:24:13.167Z,-0.10
2024-01-20T00:27:00.914Z,-0.10
2024-01-20T00:29:49.288Z,-0.20
2024-01-20T00:32:37.327Z,-0.20
2024-01-20T00:35:27.058Z,-0.20
2024-01-20T00:38:14.335Z,-0.10
2024-01-20T00:41:02.174Z,-0.10
2024-01-20T00:43:49.381Z,-0.10
2024-01-20T00:46:37.143Z,-0.10
2024-01-20T00:49:24.738Z,0.00
2024-01-20T00:52:13.635Z,0.00
2024-01-20T00:55:00.893Z,-0.10
2024-01-20T00:57:48.723Z,0.10
2024-01-20T01:00:36.244Z,0.10
2024-01-20T01:03:23.846Z,0.10
2024-01-20T01:06:11.095Z,0.20
2024-01-20T01:09:00.012Z,0.20
2024-01-20T01:11:47.710Z,0.20
2024-01-20T01:14:35.429Z,0.20
2024-01-20T01:17:22.915Z,0.30
2024-01-20T01:20:11.093Z,0.20
2024-01-20T01:22:58.368Z,0.20
2024-01-20T01:25:47.520Z,0.20
2024-01-20T01:28:34.991Z,0.20
2024-01-20T01:31:22.673Z,0.10
2024-01-20T01:34:10.210Z,0.20
2024-01-20T01:36:57.614Z,0.20
2024-01-20T01:39:45.190Z,0.20
2024-01-20T01:42:34.856Z,0.20
2024-01-20T01:45:22.489Z,0.20
2024-01-20T01:48:10.045Z,0.20
2024-01-20T01:50:58.192Z,0.20
2024-01-20T01:53:46.072Z,0.20
2024-01-20T01:56:33.708Z,0.20
2024-01-20T01:59:22.613Z,0.20
2024-01-20T02:02:10.477Z,0.20
2024-01-20T02:04:58.283Z,0.20
2024-01-20T02:07:49.409Z,0.20
2024-01-20T02:10:37.790Z,0.10
2024-01-20T02:13:25.774Z,0.20
2024-01-20T02:16:14.493Z,0.20
2024-01-20T02:19:05.427Z,0.20
2024-01-20T02:21:53.063Z,0.20
2024-01-20T02:24:47.932Z,0.20
2024-01-20T02:27:35.410Z,0.20
2024-01-20T02:30:22.836Z,0.30
2024-01-20T02:33:10.666Z,0.20
2024-01-20T02:35:57.784Z,0.20
2024-01-20T02:38:45.445Z,0.30
2024-01-20T02:41:34.048Z,0.30
2024-01-20T02:44:21.342Z,0.30
2024-01-20T02:47:08.860Z,0.30
2024-01-20T02:49:56.455Z,0.30
2024-01-20T02:52:43.914Z,0.30
2024-01-20T02:55:31.319Z,0.40
2024-01-20T02:58:20.030Z,0.40
2024-01-20T03:01:08.394Z,0.40
2024-01-20T03:03:55.892Z,0.50
2024-01-20T03:06:43.372Z,0.50
2024-01-20T03:09:31.181Z,0.40
2024-01-20T03:12:18.784Z,0.50
2024-01-20T03:15:09.134Z,0.40
2024-01-20T03:17:56.475Z,0.50
2024-01-20T03:20:44.061Z,0.50
2024-01-20T03:23:31.714Z,0.50
2024-01-20T03:26:19.389Z,0.50
2024-01-20T03:29:07.136Z,0.50
2024-01-20T03:31:55.953Z,0.60
2024-01-20T03:34:43.566Z,0.60
2024-01-20T03:37:31.097Z,0.60
2024-01-20T03:40:18.564Z,0.60
2024-01-20T03:43:05.927Z,0.60
2024-01-20T03:45:54.449Z,0.60
2024-01-20T03:48:43.267Z,0.60
2024-01-20T03:51:30.455Z,0.60
2024-01-20T03:54:17.924Z,0.60
2024-01-20T03:57:05.874Z,0.60
2024-01-20T03:59:53.275Z,0.60
2024-01-20T04:02:40.788Z,0.60
2024-01-20T04:05:29.702Z,0.70
2024-01-20T04:08:17.153Z,0.70
2024-01-20T04:11:05.035Z,0.70
2024-01-20T04:13:52.610Z,0.70
2024-01-20T04:16:40.165Z,0.70
2024-01-20T04:19:27.676Z,0.70
2024-01-20T04:22:16.645Z,0.70
2024-01-20T04:25:04.356Z,0.70
2024-01-20T04:27:52.159Z,0.80
2024-01-20T04:30:39.702Z,0.70
2024-01-20T04:33:27.138Z,0.70
2024-01-20T04:36:14.807Z,0.60
2024-01-20T04:39:03.725Z,0.60
2024-01-20T04:41:51.229Z,0.60
2024-01-20T04:44:38.786Z,0.60
2024-01-20T04:47:26.554Z,0.60
2024-01-20T04:50:13.879Z,0.60
2024-01-20T04:53:01.086Z,0.50
2024-01-20T04:55:50.003Z,0.50
2024-01-20T04:58:38.884Z,0.40
2024-01-20T05:01:26.345Z,0.40
2024-01-20T05:04:13.887Z,0.40
2024-01-20T05:07:01.552Z,0.40
2024-01-20T05:09:49.022Z,0.30
2024-01-20T05:12:38.065Z,0.30
2024-01-20T05:15:25.705Z,0.30
2024-01-20T05:18:13.229Z,0.40
2024-01-20T05:21:00.875Z,0.40
2024-01-20T05:23:48.441Z,0.50
2024-01-20T05:26:35.650Z,0.50
2024-01-20T05:29:24.562Z,0.60
2024-01-20T05:32:11.911Z,0.60
2024-01-20T05:34:59.522Z,0.70
2024-01-20T05:37:47.309Z,0.70
2024-01-20T05:40:34.625Z,0.70
2024-01-20T05:43:21.917Z,0.80
2024-01-20T05:46:10.793Z,0.80
2024-01-20T05:48:58.234Z,0.80
2024-01-20T05:51:45.777Z,0.90
2024-01-20T05:54:33.445Z,0.90
2024-01-20T05:57:20.886Z,0.90
2024-01-20T06:00:10.411Z,1.00
2024-01-20T06:02:59.424Z,0.90
2024-01-20T06:05:46.602Z,1.00
2024-01-20T06:08:34.081Z,1.00
2024-01-20T06:11:23.490Z,0.90
2024-01-20T06:14:10.784Z,0.90
2024-01-20T06:16:58.577Z,0.80
2024-01-20T06:19:47.142Z,0.80
2024-01-20T06:22:34.350Z,0.80
2024-01-20T06:25:21.998Z,0.70
2024-01-20T06:28:11.109Z,0.70
2024-01-20T06:30:58.297Z,0.60
2024-01-20T06:33:45.837Z,0.60
2024-01-20T06:36:34.396Z,0.60
2024-01-20T06:39:21.712Z,0.60
2024-01-20T06:42:08.957Z,0.50
2024-01-20T06:44:58.065Z,0.60
2024-01-20T06:47:46.884Z,0.70
2024-01-20T06:50:34.443Z,0.60
2024-01-20T06:53:23.457Z,0.70
2024-01-20T06:56:10.817Z,0.70
2024-01-20T06:58:58.486Z,0.70
2024-01-20T07:01:46.797Z,0.70
2024-01-20T07:04:34.587Z,0.70
2024-01-20T07:07:21.748Z,0.70
2024-01-20T07:10:11.372Z,0.70
2024-01-20T07:12:59.396Z,0.80
2024-01-20T07:15:47.043Z,0.70
2024-01-20T07:18:34.579Z,0.80
2024-01-20T07:21:22.357Z,0.90
2024-01-20T07:24:09.900Z,0.80
2024-01-20T07:26:58.552Z,0.90
2024-01-20T07:29:45.782Z,0.90
2024-01-20T07:32:33.464Z,1.00
2024-01-20T07:35:21.098Z,1.00
2024-01-20T07:38:08.585Z,0.90
2024-01-20T07:40:56.239Z,1.00
2024-01-20T07:43:45.169Z,1.00
2024-01-20T07:46:32.605Z,1.00
2024-01-20T07:49:20.289Z,1.00
2024-01-20T07:52:07.744Z,1.00
2024-01-20T07:54:55.078Z,1.00
2024-01-20T07:57:42.665Z,1.20
2024-01-20T08:00:31.371Z,1.20
2024-01-20T08:03:18.680Z,1.10
2024-01-20T08:06:07.058Z,1.10
2024-01-20T08:08:54.462Z,1.10
2024-01-20T08:11:41.961Z,1.10
2024-01-20T08:14:29.458Z,1.10
2024-01-20T08:17:18.901Z,1.10
2024-01-20T08:20:07.152Z,1.10
2024-01-20T08:22:54.406Z,1.20
2024-01-20T08:25:42.228Z,1.20
2024-01-20T08:28:30.071Z,1.20
2024-01-20T08:31:17.848Z,1.20
2024-01-20T08:34:06.907Z,1.30
2024-01-20T08:36:54.522Z,1.30
2024-01-20T08:39:42.089Z,1.30
2024-01-20T08:42:29.667Z,1.30
2024-01-20T08:45:17.192Z,1.40
2024-01-20T08:48:05.224Z,1.40
2024-01-20T08:50:53.932Z,1.50
2024-01-20T08:53:41.172Z,1.50
2024-01-20T08:56:28.681Z,1.50
2024-01-20T08:59:16.316Z,1.50
2024-01-20T09:02:04.884Z,1.60
2024-01-20T09:04:52.368Z,1.60
2024-01-20T09:07:41.257Z,1.70
2024-01-20T09:10:29.239Z,1.70
2024-01-20T09:13:18.898Z,1.70
2024-01-20T09:16:06.727Z,1.70
2024-01-20T09:18:54.052Z,1.70
2024-01-20T09:21:45.008Z,1.80
2024-01-20T09:24:33.728Z,1.80
2024-01-20T09:27:21.080Z,1.80
2024-01-20T09:30:09.875Z,1.80
2024-01-20T09:32:57.160Z,1.90
2024-01-20T09:35:44.745Z,1.80
2024-01-20T09:38:32.510Z,1.90
2024-01-20T09:41:21.732Z,1.80
2024-01-20T09:44:09.980Z,1.90
2024-01-20T09:46:57.384Z,1.90
2024-01-20T09:49:44.695Z,1.90
2024-01-20T09:52:35.523Z,1.90
2024-01-20T09:55:25.013Z,1.90
2024-01-20T09:58:15.698Z,1.60
2024-01-20T10:01:03.669Z,2.00
2024-01-20T10:03:51.733Z,2.00
2024-01-20T10:06:39.991Z,2.10
2024-01-20T10:09:29.488Z,2.20
2024-01-20T10:12:17.304Z,2.30
2024-01-20T10:15:07.428Z,2.40
2024-01-20T10:17:56.288Z,2.50
2024-01-20T10:20:45.266Z,2.50
2024-01-20T10:23:36.866Z,2.50
2024-01-20T10:26:26.752Z,2.50
2024-01-20T10:29:13.946Z,2.50
2024-01-20T10:32:02.649Z,2.50
2024-01-20T10:34:50.087Z,2.50
2024-01-20T10:37:41.512Z,2.40
2024-01-20T10:40:29.249Z,2.40
2024-01-20T10:43:17.825Z,2.40
2024-01-20T10:46:13.415Z,2.40
2024-01-20T10:49:06.656Z,2.50
2024-01-20T10:51:55.466Z,2.50
2024-01-20T10:54:44.808Z,2.50
2024-01-20T10:57:33.730Z,2.50
2024-01-20T11:00:22.144Z,2.40
2024-01-20T11:03:10.512Z,2.40
2024-01-20T11:05:59.140Z,2.50
2024-01-20T11:08:51.766Z,2.60
2024-01-20T11:11:39.956Z,2.60
2024-01-20T11:14:32.964Z,2.70
2024-01-20T11:17:20.595Z,2.80
2024-01-20T11:20:08.903Z,2.80
2024-01-20T11:22:57.858Z,2.70
2024-01-20T11:25:46.904Z,2.70
2024-01-20T11:28:36.594Z,2.70
2024-01-20T11:31:27.605Z,2.70
2024-01-20T11:34:15.668Z,2.70
2024-01-20T11:37:04.011Z,2.60
2024-01-20T11:39:52.716Z,2.60
2024-01-20T11:42:39.869Z,2.70
2024-01-20T11:45:27.582Z,2.80
2024-01-20T11:48:18.453Z,2.80
2024-01-20T11:51:06.838Z,2.90
2024-01-20T11:53:54.981Z,2.90
2024-01-20T11:56:45.124Z,2.90
2024-01-20T11:59:32.376Z,3.00
2024-01-20T12:02:20.078Z,3.00
2024-01-20T12:05:15.937Z,3.10
2024-01-20T12:08:07.138Z,3.10
2024-01-20T12:10:54.494Z,3.10
2024-01-20T12:13:43.819Z,3.20
2024-01-20T12:16:31.785Z,3.20
2024-01-20T12:19:19.418Z,3.10
2024-01-20T12:22:08.088Z,3.20
2024-01-20T12:24:56.226Z,3.20
2024-01-20T12:27:43.677Z,3.10
2024-01-20T12:30:32.225Z,3.10
2024-01-20T12:33:20.263Z,3.10
2024-01-20T12:36:08.363Z,3.20
2024-01-20T12:38:56.158Z,3.20
2024-01-20T12:41:43.664Z,3.30
2024-01-20T12:44:31.305Z,3.30
2024-01-20T12:47:20.421Z,3.30
2024-01-20T12:50:08.860Z,3.20
2024-01-20T12:52:56.399Z,3.30
2024-01-20T12:55:45.444Z,3.30
2024-01-20T12:58:33.062Z,3.30
2024-01-20T13:01:24.104Z,3.30
2024-01-20T13:04:14.002Z,3.30
2024-01-20T13:07:01.323Z,3.40
2024-01-20T13:09:48.850Z,3.40
2024-01-20T13:12:36.450Z,3.40
2024-01-20T13:15:26.283Z,3.40
2024-01-20T13:18:16.235Z,3.50
2024-01-20T13:21:05.442Z,3.60
2024-01-20T13:23:53.028Z,3.60
2024-01-20T13:26:40.409Z,3.70
2024-01-20T13:29:28.072Z,3.70
2024-01-20T13:32:15.692Z,3.70
2024-01-20T13:35:04.041Z,3.70
2024-01-20T13:37:52.831Z,3.80
2024-01-20T13:40:41.201Z,3.70
2024-01-20T13:43:28.643Z,3.80
2024-01-20T13:46:16.261Z,3.80
2024-01-20T13:49:06.339Z,3.80
2024-01-20T13:51:54.975Z,3.80
2024-01-20T13:54:44.535Z,4.30
2024-01-20T13:57:32.053Z,3.80
2024-01-20T14:00:20.036Z,3.70
2024-01-20T14:03:07.648Z,3.70
2024-01-20T14:05:55.186Z,3.70
2024-01-20T14:08:42.791Z,3.60
2024-01-20T14:11:31.796Z,3.70
2024-01-20T14:14:19.112Z,3.70
2024-01-20T14:17:07.941Z,3.60
2024-01-20T14:19:55.295Z,3.60
2024-01-20T14:22:42.811Z,3.60
2024-01-20T14:25:30.550Z,3.60
2024-01-20T14:28:19.648Z,3.60
2024-01-20T14:31:06.919Z,3.50
2024-01-20T14:33:54.575Z,3.60
2024-01-20T14:36:43.320Z,3.50
2024-01-20T14:39:30.813Z,3.60
2024-01-20T14:42:18.375Z,3.60
2024-01-20T14:45:08.389Z,3.50
2024-01-20T14:47:55.991Z,3.50
2024-01-20T14:50:43.725Z,3.50
2024-01-20T14:53:31.156Z,3.50
2024-01-20T14:56:18.866Z,3.50
2024-01-20T14:59:06.181Z,3.50
2024-01-20T15:01:55.195Z,3.40
2024-01-20T15:04:42.457Z,3.40
2024-01-20T15:07:31.608Z,3.40
2024-01-20T15:10:21.770Z,3.40
2024-01-20T15:13:09.304Z,3.40
2024-01-20T15:15:57.403Z,3.30
2024-01-20T15:18:46.262Z,3.30
2024-01-20T15:21:33.827Z,3.20
2024-01-20T15:24:21.453Z,3.20
2024-01-20T15:27:09.039Z,3.20
2024-01-20T15:29:57.099Z,3.10
2024-01-20T15:32:44.620Z,3.10
2024-01-20T15:35:33.451Z,3.10
2024-01-20T15:38:21.138Z,3.00
2024-01-20T15:41:08.677Z,3.00
2024-01-20T15:43:56.286Z,3.00
2024-01-20T15:46:43.962Z,3.00
2024-01-20T15:49:31.288Z,2.90
2024-01-20T15:52:19.985Z,2.90
2024-01-20T15:55:09.279Z,2.90
2024-01-20T15:57:56.957Z,2.80
2024-01-20T16:00:44.401Z,3.00
2024-01-20T16:03:32.006Z,2.70
2024-01-20T16:06:19.628Z,2.70
2024-01-20T16:09:08.575Z,2.60
2024-01-20T16:11:55.964Z,2.50
2024-01-20T16:14:43.540Z,2.50
2024-01-20T16:17:31.125Z,2.50
2024-01-20T16:20:19.157Z,2.40
2024-01-20T16:23:06.447Z,2.40
2024-01-20T16:25:55.368Z,2.30
2024-01-20T16:28:42.988Z,2.30
2024-01-20T16:31:30.660Z,2.20
2024-01-20T16:34:18.180Z,2.20
2024-01-20T16:37:06.021Z,2.10
2024-01-20T16:39:53.881Z,2.10
2024-01-20T16:42:43.542Z,2.20
2024-01-20T16:45:30.801Z,2.00
2024-01-20T16:48:19.310Z,2.10
2024-01-20T16:51:15.025Z,2.10
2024-01-20T16:54:09.903Z,2.00
2024-01-20T16:56:57.194Z,1.90
2024-01-20T16:59:47.831Z,1.80
2024-01-20T17:02:35.169Z,1.70
2024-01-20T17:05:23.322Z,1.50
2024-01-20T17:08:10.355Z,1.50
2024-01-20T17:10:57.869Z,1.40
2024-01-20T17:13:45.986Z,1.40
2024-01-20T17:16:35.809Z,1.50
2024-01-20T17:19:24.952Z,1.30
2024-01-20T17:22:12.531Z,1.30
2024-01-20T17:25:00.035Z,1.30
2024-01-20T17:27:48.963Z,1.30
2024-01-20T17:30:36.251Z,1.20
2024-01-20T17:33:24.834Z,1.20
2024-01-20T17:36:12.544Z,1.20
2024-01-20T17:39:01.178Z,1.20
2024-01-20T17:41:49.448Z,1.10
2024-01-20T17:44:36.996Z,1.20
2024-01-20T17:47:24.448Z,1.10
2024-01-20T17:50:13.848Z,1.20
2024-01-20T17:53:01.531Z,1.20
2024-01-20T17:55:49.119Z,1.20
2024-01-20T17:58:36.782Z,1.10
2024-01-20T18:01:24.197Z,1.10
2024-01-20T18:04:11.786Z,1.10
2024-01-20T18:07:00.884Z,1.10
2024-01-20T18:09:48.337Z,1.00
2024-01-20T18:12:35.938Z,0.90
2024-01-20T18:15:23.397Z,0.90
2024-01-20T18:18:10.956Z,1.00
2024-01-20T18:20:58.400Z,0.90
2024-01-20T18:23:47.510Z,0.90
2024-01-20T18:26:34.842Z,0.80
2024-01-20T18:29:22.261Z,0.80
2024-01-20T18:32:10.155Z,0.70
2024-01-20T18:34:57.599Z,0.70
2024-01-20T18:37:44.928Z,0.50
2024-01-20T18:40:33.836Z,0.60
2024-01-20T18:43:21.040Z,0.60
2024-01-20T18:46:08.830Z,0.60
2024-01-20T18:48:56.214Z,0.60
2024-01-20T18:51:44.281Z,0.50
2024-01-20T18:54:31.757Z,1.00
2024-01-20T18:57:20.532Z,0.50
2024-01-20T19:00:08.897Z,0.40
2024-01-20T19:02:56.431Z,0.40
2024-01-20T19:05:43.616Z,0.50
2024-01-20T19:08:31.398Z,0.40
2024-01-20T19:11:20.107Z,0.50
2024-01-20T19:14:08.835Z,0.40
2024-01-20T19:16:56.637Z,0.40
2024-01-20T19:19:44.577Z,0.30
2024-01-20T19:22:32.992Z,0.30
2024-01-20T19:25:20.274Z,0.30
2024-01-20T19:28:07.956Z,0.30
2024-01-20T19:30:57.279Z,0.30
2024-01-20T19:33:46.586Z,0.30
2024-01-20T19:36:34.259Z,0.30
2024-01-20T19:39:23.039Z,0.20
2024-01-20T19:42:10.577Z,0.20
2024-01-20T19:44:58.138Z,0.10
2024-01-20T19:47:47.349Z,0.10
2024-01-20T19:50:34.802Z,0.00
2024-01-20T19:53:22.505Z,0.10
2024-01-20T19:56:10.114Z,0.00
2024-01-20T19:58:58.037Z,0.00
2024-01-20T20:01:46.419Z,0.00
2024-01-20T20:04:35.218Z,0.00
2024-01-20T20:07:22.755Z,-0.10
2024-01-20T20:10:10.621Z,0.00
2024-01-20T20:12:58.319Z,-0.10
2024-01-20T20:15:45.896Z,-0.10
2024-01-20T20:18:34.165Z,-0.20
2024-01-20T20:21:22.987Z,-0.20
2024-01-20T20:24:11.433Z,-0.20
2024-01-20T20:26:59.208Z,-0.20
2024-01-20T20:29:47.040Z,-0.20
2024-01-20T20:32:34.510Z,-0.20
2024-01-20T20:35:21.780Z,-0.30
2024-01-20T20:38:10.998Z,-0.20
2024-01-20T20:41:00.954Z,-0.30
2024-01-20T20:43:48.439Z,-0.40
2024-01-20T20:46:35.950Z,-0.40
2024-01-20T20:49:23.428Z,-0.60
2024-01-20T20:52:10.686Z,-0.60
2024-01-20T20:54:59.472Z,-0.60
2024-01-20T20:57:46.793Z,-0.70
2024-01-20T21:00:34.509Z,-0.80
2024-01-20T21:03:23.322Z,-0.70
2024-01-20T21:06:11.105Z,-0.80
2024-01-20T21:08:58.725Z,-0.80
2024-01-20T21:11:47.655Z,-0.90
2024-01-20T21:14:36.814Z,-0.80
2024-01-20T21:17:24.012Z,-0.80
2024-01-20T21:20:12.862Z,-0.80
2024-01-20T21:23:00.332Z,-0.70
2024-01-20T21:25:48.055Z,-0.70
2024-01-20T21:28:36.834Z,-0.80
2024-01-20T21:31:24.106Z,-0.90
2024-01-20T21:34:11.719Z,-1.00
2024-01-20T21:36:59.134Z,-0.90
2024-01-20T21:39:46.827Z,-1.00
2024-01-20T21:42:34.230Z,-1.10
2024-01-20T21:45:23.465Z,-1.00
2024-01-20T21:48:11.169Z,-1.00
2024-01-20T21:50:58.826Z,-1.20
2024-01-20T21:53:46.263Z,-1.20
2024-01-20T21:56:33.929Z,-1.30
2024-01-20T21:59:22.224Z,-1.30
2024-01-20T22:02:10.980Z,-1.30
2024-01-20T22:04:59.530Z,-1.30
2024-01-20T22:07:47.125Z,-1.30
2024-01-20T22:10:34.712Z,-1.30
2024-01-20T22:13:22.373Z,-1.30
2024-01-20T22:16:09.993Z,-1.30
2024-01-20T22:18:58.922Z,-1.30
2024-01-20T22:21:46.195Z,-1.40
2024-01-20T22:24:33.770Z,-1.50
2024-01-20T22:27:21.231Z,-1.50
2024-01-20T22:30:10.475Z,-1.60
2024-01-20T22:32:58.325Z,-1.60
2024-01-20T22:35:47.038Z,-1.70
2024-01-20T22:38:34.765Z,-1.80
2024-01-20T22:41:22.183Z,-1.80
2024-01-20T22:44:10.057Z,-1.90
2024-01-20T22:46:57.193Z,-1.90
2024-01-20T22:49:44.585Z,-1.90
2024-01-20T22:52:33.353Z,-1.90
2024-01-20T22:55:20.938Z,-2.10
2024-01-20T22:58:08.045Z,-2.10
2024-01-20T23:00:55.704Z,-2.10
2024-01-20T23:03:43.151Z,-2.10
2024-01-20T23:06:31.172Z,-2.20
2024-01-20T23:09:20.577Z,-2.20
2024-01-20T23:12:08.147Z,-2.20
2024-01-20T23:14:56.027Z,-2.30
2024-01-20T23:17:43.225Z,-2.30
2024-01-20T23:20:30.728Z,-2.30
2024-01-20T23:23:18.347Z,-2.30
2024-01-20T23:26:07.579Z,-2.30
2024-01-20T23:28:54.972Z,-2.30
2024-01-20T23:31:42.403Z,-2.40
2024-01-20T23:34:30.095Z,-2.30
2024-01-20T23:37:17.474Z,-2.40
2024-01-20T23:40:05.754Z,-2.40
2024-01-20T23:42:54.904Z,-2.50
2024-01-20T23:45:43.256Z,-2.60
2024-01-20T23:48:30.939Z,-2.60
2024-01-20T23:51:18.480Z,-2.60
2024-01-20T23:54:05.999Z,-2.70
2024-01-20T23:56:53.643Z,-2.70
2024-01-20T23:59:46.082Z,-2.70
